Time;durP1;ratioP1;P1;durP2;ratioP2;P2;SDS_P1;SDS_P2;PMS_P1;PMS_P2;Temp;Humidity;BMP_temperature;BMP_pressure;BME280_temperature;BME280_humidity;BME280_pressure;Samples;Min_cycle;Max_cycle;Signal;HPM_P1;HPM_P2
2021/04/06 00:00:34;;;;;;;21.73;13.20;;;;;;;2.87;74.29;99513.03;5013073;28;20429;-22
2021/04/06 00:03:01;;;;;;;19.05;11.77;;;;;;;2.87;74.77;99501.69;5013110;28;20017;-21
2021/04/06 00:05:27;;;;;;;24.17;13.73;;;;;;;2.97;74.32;99505.66;5013520;28;20112;-21
2021/04/06 00:07:53;;;;;;;21.15;12.00;;;;;;;3.25;73.04;99483.09;5012956;28;20112;-21
2021/04/06 00:10:43;;;;;;;17.83;10.63;;;;;;;4.11;71.11;99494.47;5012900;28;20901;-22
2021/04/06 00:13:08;;;;;;;15.25;9.95;;;;;;;3.96;71.00;99470.00;5031993;28;20045;-21
2021/04/06 00:15:34;;;;;;;30.35;15.98;;;;;;;4.45;69.72;99466.50;5013078;28;20075;-21
2021/04/06 00:18:01;;;;;;;19.38;12.35;;;;;;;5.00;67.50;99477.94;5029242;28;20765;-22
2021/04/06 00:20:28;;;;;;;19.30;11.80;;;;;;;5.05;67.55;99474.75;5046729;28;20029;-22
2021/04/06 00:22:54;;;;;;;20.13;11.82;;;;;;;5.14;66.74;99470.91;5013058;28;20083;-22
2021/04/06 00:25:22;;;;;;;19.92;11.82;;;;;;;5.14;67.73;99462.97;5015714;28;20455;-22
2021/04/06 00:27:48;;;;;;;20.58;12.40;;;;;;;5.23;66.36;99467.06;5033252;28;20025;-21
2021/04/06 00:30:16;;;;;;;17.67;12.02;;;;;;;4.67;68.53;99464.59;5016675;28;20044;-22
2021/04/06 00:32:42;;;;;;;23.73;13.55;;;;;;;5.05;66.90;99464.16;5017392;28;20033;-22
2021/04/06 00:35:08;;;;;;;29.95;17.20;;;;;;;5.41;65.39;99455.09;5033412;28;20390;-22
2021/04/06 00:37:44;;;;;;;26.60;16.08;;;;;;;5.51;64.89;99450.25;5016592;28;20066;-22
2021/04/06 00:40:10;;;;;;;24.05;15.50;;;;;;;4.83;67.29;99455.53;5017616;28;20036;-22
2021/04/06 00:42:35;;;;;;;18.25;12.95;;;;;;;3.98;69.95;99463.53;5033054;28;20028;-22
2021/04/06 00:45:15;;;;;;;18.90;11.85;;;;;;;3.49;71.72;99471.38;5032987;28;20041;-22
2021/04/06 00:47:41;;;;;;;18.17;12.40;;;;;;;4.05;70.40;99457.50;5050617;28;20044;-22
2021/04/06 00:50:12;;;;;;;22.50;13.98;;;;;;;4.70;68.23;99450.16;5032597;28;20056;-21
2021/04/06 00:52:46;;;;;;;21.88;13.82;;;;;;;4.33;69.28;99450.41;5050582;28;20025;-22
2021/04/06 00:55:18;;;;;;;19.77;12.88;;;;;;;3.86;70.53;99459.75;5050631;28;20040;-22
2021/04/06 00:57:44;;;;;;;20.52;13.80;;;;;;;4.39;69.53;99439.06;5050515;28;20048;-22
2021/04/06 01:00:20;;;;;;;21.98;13.35;;;;;;;5.07;67.48;99434.88;5050282;28;20029;-22
2021/04/06 01:03:12;;;;;;;21.92;13.43;;;;;;;5.12;66.53;99435.91;5032501;28;20021;-21
2021/04/06 01:06:02;;;;;;;18.45;11.68;;;;;;;4.66;67.89;99428.63;5050638;28;20401;-21
2021/04/06 01:08:28;;;;;;;20.83;12.60;;;;;;;4.16;69.59;99401.53;5050449;28;20405;-22
2021/04/06 01:10:54;;;;;;;18.05;11.93;;;;;;;4.25;69.62;99416.22;5050383;28;20531;-22
2021/04/06 01:13:20;;;;;;;19.90;11.70;;;;;;;4.18;69.10;99388.97;5032505;28;20021;-21
2021/04/06 01:15:46;;;;;;;19.58;11.73;;;;;;;4.05;69.27;99402.09;5050486;28;20029;-22
2021/04/06 01:18:12;;;;;;;19.30;11.90;;;;;;;3.71;69.92;99414.19;5032061;28;20032;-22
2021/04/06 01:20:38;;;;;;;23.73;11.93;;;;;;;3.54;70.59;99387.28;5050186;28;20033;-22
2021/04/06 01:23:12;;;;;;;14.80;10.05;;;;;;;3.71;69.84;99403.66;5032513;28;20040;-22
2021/04/06 01:25:43;;;;;;;14.60;9.73;;;;;;;3.60;69.86;99407.63;5016290;28;20029;-22
2021/04/06 01:28:09;;;;;;;17.90;9.60;;;;;;;2.90;72.00;99385.44;5049718;28;20017;-21
2021/04/06 01:30:50;;;;;;;15.98;9.95;;;;;;;3.59;69.99;99401.50;5049861;28;20029;-22
2021/04/06 01:33:21;;;;;;;14.38;9.13;;;;;;;3.58;69.78;99389.34;5032162;28;20021;-22
2021/04/06 01:35:48;;;;;;;16.17;9.98;;;;;;;4.12;68.30;99395.81;5048842;28;20460;-22
2021/04/06 01:38:13;;;;;;;14.45;9.15;;;;;;;4.14;67.37;99372.69;5049300;28;20029;-21
2021/04/06 01:40:40;;;;;;;13.40;8.73;;;;;;;4.23;68.02;99378.66;5049840;28;20062;-22
2021/04/06 01:43:06;;;;;;;18.55;10.65;;;;;;;4.62;67.58;99372.75;5031868;28;20119;-22
2021/04/06 01:45:33;;;;;;;15.00;9.57;;;;;;;4.73;66.09;99365.28;5031935;28;20029;-20
2021/04/06 01:48:00;;;;;;;16.70;10.15;;;;;;;4.85;66.47;99384.00;5049423;28;20107;-21
2021/04/06 01:50:25;;;;;;;17.77;11.23;;;;;;;4.67;67.10;99376.63;5049232;28;20083;-21
2021/04/06 01:52:52;;;;;;;20.67;12.23;;;;;;;4.84;66.34;99369.97;5031699;28;20857;-22
2021/04/06 01:55:28;;;;;;;18.30;12.07;;;;;;;4.61;67.34;99373.75;5031867;28;20043;-22
2021/04/06 01:57:54;;;;;;;17.23;12.18;;;;;;;3.97;69.71;99376.66;5016384;28;20029;-22
2021/04/06 02:00:33;;;;;;;15.52;10.32;;;;;;;3.37;71.43;99370.91;5014756;28;20095;-22
2021/04/06 02:03:04;;;;;;;17.77;12.10;;;;;;;3.33;72.00;99380.19;5049327;28;20522;-22
2021/04/06 02:05:30;;;;;;;17.15;11.60;;;;;;;2.78;73.13;99356.16;5032199;28;20515;-22
2021/04/06 02:07:59;;;;;;;17.92;11.88;;;;;;;2.49;74.09;99367.53;5049367;28;20029;-21
2021/04/06 02:10:25;;;;;;;20.33;13.50;;;;;;;2.59;73.99;99360.97;5049002;28;20036;-22
2021/04/06 02:12:50;;;;;;;20.20;12.32;;;;;;;2.44;74.33;99348.84;5014622;28;20082;-21
2021/04/06 02:15:16;;;;;;;18.67;13.80;;;;;;;2.44;74.90;99352.28;5031630;28;20037;-22
2021/04/06 02:17:48;;;;;;;20.33;13.07;;;;;;;2.93;72.94;99361.38;5049070;28;20029;-22
2021/04/06 02:20:24;;;;;;;18.92;12.60;;;;;;;2.78;74.21;99356.97;5048742;28;20064;-22
2021/04/06 02:23:03;;;;;;;19.98;12.85;;;;;;;2.56;75.24;99337.66;5048989;28;20037;-20
2021/04/06 02:25:28;;;;;;;;;;;;;;;2.68;74.60;99366.97;5049257;28;20039;-22
2021/04/06 02:27:54;;;;;;;23.13;14.57;;;;;;;2.27;74.86;99349.06;5048645;28;19912;-22
2021/04/06 02:30:30;;;;;;;25.38;15.98;;;;;;;2.40;74.75;99349.22;5048735;28;20025;-20
2021/04/06 02:32:57;;;;;;;22.98;14.55;;;;;;;2.52;74.20;99346.13;5032263;28;20041;-22
2021/04/06 02:35:23;;;;;;;24.75;16.05;;;;;;;2.58;74.58;99330.41;5031029;28;20107;-22
2021/04/06 02:37:48;;;;;;;25.40;16.20;;;;;;;2.84;73.80;99339.59;5030700;28;20111;-22
2021/04/06 02:40:15;;;;;;;26.92;16.10;;;;;;;3.37;71.90;99334.00;5048198;28;20043;-22
2021/04/06 02:42:48;;;;;;;25.33;15.25;;;;;;;3.42;71.97;99342.16;5048577;28;20082;-22
2021/04/06 02:45:14;;;;;;;25.55;15.57;;;;;;;3.90;70.63;99350.22;5048807;28;20405;-22
2021/04/06 02:47:45;;;;;;;26.48;16.65;;;;;;;4.11;68.76;99325.59;5048111;28;20465;-22
2021/04/06 02:50:12;;;;;;;27.08;16.75;;;;;;;4.29;70.07;99343.56;5048426;28;20057;-21
2021/04/06 02:52:38;;;;;;;26.98;16.95;;;;;;;4.59;68.05;99348.56;5014084;28;20021;-22
2021/04/06 02:55:05;;;;;;;27.55;17.90;;;;;;;4.67;67.64;99319.34;5048257;28;20045;-22
2021/04/06 02:57:31;;;;;;;41.00;25.10;;;;;;;4.87;66.68;99323.88;5030354;28;20111;-22
2021/04/06 02:59:57;;;;;;;45.08;27.90;;;;;;;4.77;66.56;99282.78;5048639;28;20116;-20
2021/04/06 03:02:22;;;;;;;43.95;27.42;;;;;;;4.95;66.72;99313.09;5048116;28;20028;-21
2021/04/06 03:04:48;;;;;;;40.28;26.80;;;;;;;4.86;67.27;99295.81;5048213;28;20849;-22
2021/04/06 03:07:18;;;;;;;42.45;26.27;;;;;;;4.90;67.17;99297.03;5013572;28;20048;-22
2021/04/06 03:09:50;;;;;;;40.83;25.52;;;;;;;4.73;67.48;99313.25;5048319;28;20029;-21
2021/04/06 03:12:16;;;;;;;42.03;30.25;;;;;;;3.98;70.95;99299.97;5047650;28;20029;-22
2021/04/06 03:14:44;;;;;;;32.97;22.88;;;;;;;3.38;73.15;99304.03;5030016;28;20036;-22
2021/04/06 03:17:09;;;;;;;40.00;21.92;;;;;;;3.03;74.17;99282.84;5047872;28;20028;-22
2021/04/06 03:19:35;;;;;;;29.90;16.95;;;;;;;3.28;73.87;99308.81;5047752;28;20040;-22
2021/04/06 03:22:00;;;;;;;29.13;17.17;;;;;;;3.86;72.00;99305.97;5047804;28;20028;-22
2021/04/06 03:24:28;;;;;;;30.15;18.02;;;;;;;3.81;71.72;99291.53;5029798;28;20570;-20
2021/04/06 03:26:59;;;;;;;29.53;19.27;;;;;;;4.36;69.70;99291.59;5047575;28;20086;-21
2021/04/06 03:29:24;;;;;;;35.53;22.02;;;;;;;4.57;69.05;99290.66;5029869;28;20032;-21
2021/04/06 03:31:50;;;;;;;34.20;22.90;;;;;;;4.98;67.68;99283.63;5047496;28;20037;-22
2021/04/06 03:34:15;;;;;;;32.50;21.45;;;;;;;5.12;67.14;99285.28;5029432;28;20033;-21
2021/04/06 03:36:41;;;;;;;35.15;22.35;;;;;;;5.20;66.33;99302.75;5029985;28;20064;-21
2021/04/06 03:39:07;;;;;;;77.75;43.28;;;;;;;4.86;67.72;99309.00;5047608;28;20148;-22
2021/04/06 03:41:33;;;;;;;40.17;26.35;;;;;;;4.93;68.08;99309.84;5047477;28;20036;-22
2021/04/06 03:44:12;;;;;;;36.08;23.95;;;;;;;4.77;67.43;99281.97;5047484;28;20025;-22
2021/04/06 03:46:39;;;;;;;55.13;37.40;;;;;;;4.59;68.89;99290.47;5047501;28;20033;-20
2021/04/06 03:49:14;;;;;;;38.83;26.50;;;;;;;4.53;69.38;99294.69;5047341;28;20068;-21
2021/04/06 03:52:06;;;;;;;31.55;20.52;;;;;;;4.29;70.20;99317.16;5047235;28;20562;-22
2021/04/06 03:54:35;;;;;;;31.90;21.10;;;;;;;3.69;71.69;99331.81;5046871;28;20055;-20
2021/04/06 03:57:01;;;;;;;35.10;23.08;;;;;;;4.01;71.44;99330.41;5047029;28;20106;-22
2021/04/06 03:59:30;;;;;;;41.85;24.83;;;;;;;4.34;69.54;99320.03;5046726;28;20029;-21
2021/04/06 04:01:56;;;;;;;38.13;22.65;;;;;;;4.15;69.76;99304.94;5047160;28;20108;-22
2021/04/06 04:04:22;;;;;;;35.47;22.90;;;;;;;4.70;67.97;99296.97;5046716;28;20126;-22
2021/04/06 04:06:48;;;;;;;39.95;22.65;;;;;;;4.87;66.78;99322.03;5029278;28;20503;-22
2021/04/06 04:09:13;;;;;;;35.67;23.83;;;;;;;4.57;67.89;99332.09;5029614;28;20531;-22
2021/04/06 04:11:40;;;;;;;38.17;24.25;;;;;;;4.72;68.15;99332.78;5046929;28;20606;-22
2021/04/06 04:14:05;;;;;;;36.72;24.30;;;;;;;4.56;67.74;99312.00;5047040;28;20124;-22
2021/04/06 04:16:34;;;;;;;36.65;23.88;;;;;;;4.78;67.33;99331.97;5046767;28;20111;-22
2021/04/06 04:18:59;;;;;;;;;;;;;;;4.17;69.08;99329.28;5030052;28;20523;-21
2021/04/06 04:21:25;;;;;;;32.50;21.30;;;;;;;4.89;66.59;99325.28;5029113;28;19909;-22
2021/04/06 04:23:50;;;;;;;34.55;23.60;;;;;;;5.03;66.44;99334.88;5046914;28;20056;-22
2021/04/06 04:26:16;;;;;;;31.80;21.20;;;;;;;5.02;66.72;99348.28;5046386;28;20500;-22
2021/04/06 04:28:41;;;;;;;32.25;20.02;;;;;;;4.40;68.52;99348.28;5046873;28;20068;-22
2021/04/06 04:31:11;;;;;;;33.60;22.65;;;;;;;5.07;67.20;99345.84;5046828;28;20722;-22
2021/04/06 04:33:36;;;;;;;38.83;24.77;;;;;;;4.42;68.00;99322.50;5046996;28;20452;-22
2021/04/06 04:36:02;;;;;;;46.97;31.58;;;;;;;4.76;67.71;99336.63;5046718;28;20056;-22
2021/04/06 04:38:28;;;;;;;53.50;32.88;;;;;;;5.29;65.55;99337.75;5046530;28;20082;-22
2021/04/06 04:40:53;;;;;;;56.60;37.13;;;;;;;5.17;67.33;99303.16;5047054;28;20086;-20
2021/04/06 04:43:19;;;;;;;61.22;37.03;;;;;;;4.75;68.43;99323.63;5029345;28;20404;-21
2021/04/06 04:45:44;;;;;;;55.30;36.88;;;;;;;4.65;69.98;99315.25;5046650;28;20459;-21
2021/04/06 04:48:10;;;;;;;53.25;35.53;;;;;;;5.29;67.58;99306.00;5046571;28;20477;-22
2021/04/06 04:50:35;;;;;;;45.13;31.35;;;;;;;5.60;66.46;99314.16;5046493;28;20049;-22
2021/04/06 04:53:01;;;;;;;43.28;30.00;;;;;;;5.52;67.32;99293.22;5047039;28;20048;-22
2021/04/06 04:55:26;;;;;;;47.22;29.75;;;;;;;5.39;68.03;99298.50;5028738;28;20036;-20
2021/04/06 04:57:52;;;;;;;48.33;31.80;;;;;;;5.24;68.90;99307.44;5046865;28;20028;-22
2021/04/06 05:00:18;;;;;;;47.42;31.00;;;;;;;5.56;67.68;99312.94;5046435;28;20048;-22
2021/04/06 05:02:44;;;;;;;51.92;35.95;;;;;;;5.14;69.58;99332.66;5046753;28;20028;-22
2021/04/06 05:05:10;;;;;;;50.33;37.20;;;;;;;5.30;68.27;99320.88;5046640;28;20120;-22
2021/04/06 05:07:37;;;;;;;53.38;37.13;;;;;;;5.29;67.66;99292.78;5046443;28;20029;-22
2021/04/06 05:10:04;;;;;;;52.90;35.67;;;;;;;5.44;68.27;99309.28;5047032;28;20056;-22
2021/04/06 05:12:30;;;;;;;43.92;32.17;;;;;;;4.92;71.22;99324.88;5049950;28;20021;-22
2021/04/06 05:14:56;;;;;;;46.30;29.75;;;;;;;4.87;69.88;99313.31;5050150;28;20085;-22
2021/04/06 05:17:22;;;;;;;39.72;24.35;;;;;;;4.70;71.26;99312.81;5050223;28;20033;-23
2021/04/06 05:19:47;;;;;;;38.92;24.42;;;;;;;5.10;70.23;99297.88;5050194;28;20036;-25
2021/04/06 05:22:13;;;;;;;36.03;23.30;;;;;;;5.23;70.17;99308.47;5050201;28;20051;-24
2021/04/06 05:24:38;;;;;;;34.90;22.60;;;;;;;5.10;70.13;99305.00;5049928;28;20032;-24
2021/04/06 05:27:04;;;;;;;40.90;26.58;;;;;;;5.21;69.92;99288.50;5032437;28;20044;-24
2021/04/06 05:29:30;;;;;;;42.10;27.42;;;;;;;5.13;70.87;99281.63;5050291;28;20032;-24
2021/04/06 05:31:55;;;;;;;36.83;23.02;;;;;;;5.18;70.17;99296.88;5049648;28;20041;-24
2021/04/06 05:34:21;;;;;;;37.67;22.70;;;;;;;4.99;70.93;99291.34;5050073;28;20091;-25
2021/04/06 05:36:47;;;;;;;31.58;19.75;;;;;;;4.93;70.73;99278.16;5050008;28;20043;-24
2021/04/06 05:39:12;;;;;;;32.85;21.13;;;;;;;4.95;72.08;99297.25;5049676;28;20039;-24
2021/04/06 05:41:42;;;;;;;33.03;18.85;;;;;;;5.13;72.18;99291.34;5049716;28;20084;-23
2021/04/06 05:44:08;;;;;;;31.83;17.98;;;;;;;5.22;70.87;99293.59;5031693;28;20036;-25
2021/04/06 05:46:35;;;;;;;29.42;17.13;;;;;;;4.81;72.47;99296.41;5031888;28;20486;-24
2021/04/06 05:49:02;;;;;;;30.30;16.85;;;;;;;5.01;72.40;99293.81;5031682;28;20551;-24
2021/04/06 05:51:28;;;;;;;26.50;16.02;;;;;;;5.58;71.28;99291.59;5049587;28;20082;-24
2021/04/06 05:53:53;;;;;;;27.55;16.45;;;;;;;5.42;70.63;99279.59;5049572;28;20029;-23
2021/04/06 05:56:19;;;;;;;31.15;17.52;;;;;;;5.34;71.99;99280.59;5031545;28;20029;-24
2021/04/06 05:58:44;;;;;;;29.15;17.13;;;;;;;5.11;72.45;99272.25;5049319;28;20111;-25
2021/04/06 06:01:10;;;;;;;29.48;18.88;;;;;;;5.63;71.31;99282.00;5049387;28;20033;-25
2021/04/06 06:03:36;;;;;;;31.50;16.98;;;;;;;5.68;69.96;99285.84;5049192;28;20496;-24
2021/04/06 06:06:01;;;;;;;26.65;17.42;;;;;;;5.24;72.44;99282.84;5049215;28;20044;-24
2021/04/06 06:08:29;;;;;;;26.75;15.55;;;;;;;5.36;72.93;99283.06;5014665;28;20044;-24
2021/04/06 06:11:04;;;;;;;28.17;16.87;;;;;;;5.70;70.83;99265.28;5015556;28;20029;-25
2021/04/06 06:13:29;;;;;;;27.52;16.00;;;;;;;5.56;71.29;99259.25;5049187;28;20029;-23
2021/04/06 06:16:07;;;;;;;29.77;17.77;;;;;;;5.65;71.38;99279.16;5049510;28;20904;-24
2021/04/06 06:18:32;;;;;;;27.77;17.33;;;;;;;5.92;70.46;99271.97;5049133;28;20104;-24
2021/04/06 06:20:58;;;;;;;28.75;17.00;;;;;;;5.95;68.96;99266.28;5049126;28;20029;-23
2021/04/06 06:23:24;;;;;;;32.60;19.42;;;;;;;6.32;68.83;99273.69;5048298;28;20037;-24
2021/04/06 06:26:07;;;;;;;37.72;19.73;;;;;;;6.72;67.65;99292.03;5048797;28;20481;-25
2021/04/06 06:28:36;;;;;;;30.85;18.42;;;;;;;6.19;69.89;99279.84;5048826;28;20025;-24
2021/04/06 06:31:04;;;;;;;33.03;18.65;;;;;;;5.89;70.17;99275.03;5048671;28;20404;-24
2021/04/06 06:33:32;;;;;;;31.85;19.23;;;;;;;5.79;72.63;99285.22;5048969;28;20029;-24
2021/04/06 06:36:04;;;;;;;32.38;19.33;;;;;;;5.85;71.73;99305.56;5048680;28;20033;-25
2021/04/06 06:38:29;;;;;;;31.85;19.08;;;;;;;6.59;69.15;99298.22;5030670;28;20037;-24
2021/04/06 06:40:56;;;;;;;33.97;19.58;;;;;;;6.56;69.62;99290.69;5049079;28;20382;-23
2021/04/06 06:43:23;;;;;;;34.85;20.58;;;;;;;6.70;69.96;99291.44;5049014;28;20896;-25
2021/04/06 06:45:50;;;;;;;32.83;19.08;;;;;;;6.25;69.76;99268.41;5048567;28;20351;-24
2021/04/06 06:48:26;;;;;;;35.30;20.20;;;;;;;6.33;69.75;99276.13;5030676;28;20446;-25
2021/04/06 06:50:52;;;;;;;41.53;22.75;;;;;;;6.23;71.10;99279.25;5048089;28;20049;-24
2021/04/06 06:53:38;;;;;;;39.92;22.23;;;;;;;6.38;71.14;99278.97;5048121;28;20032;-24
2021/04/06 06:56:04;;;;;;;38.95;21.92;;;;;;;5.85;72.61;99247.38;5048343;28;20032;-24
2021/04/06 06:58:50;;;;;;;61.85;31.75;;;;;;;6.08;72.39;99262.78;5030323;28;20025;-24
2021/04/06 07:01:26;;;;;;;41.25;23.58;;;;;;;6.08;72.23;99252.19;5047437;28;20045;-24
2021/04/06 07:04:10;;;;;;;40.10;23.17;;;;;;;6.40;72.07;99289.34;5048402;28;20501;-24
2021/04/06 07:06:40;;;;;;;43.25;25.40;;;;;;;6.47;70.63;99287.47;5047964;28;20032;-25
2021/04/06 07:09:25;;;;;;;39.15;22.00;;;;;;;6.22;71.85;99285.53;5047911;28;20037;-24
2021/04/06 07:11:58;;;;;;;44.42;24.40;;;;;;;6.23;72.10;99296.94;5047922;28;20025;-24
2021/04/06 07:14:25;;;;;;;37.15;23.17;;;;;;;6.13;72.81;99283.31;5047892;28;20052;-23
2021/04/06 07:16:53;;;;;;;79.72;44.33;;;;;;;6.74;70.48;99298.75;5048024;28;20086;-24
2021/04/06 07:19:19;;;;;;;54.97;29.55;;;;;;;6.66;70.89;99312.25;5047751;28;20121;-24
2021/04/06 07:21:45;;;;;;;37.47;22.80;;;;;;;6.68;70.95;99315.50;5047857;28;20111;-24
2021/04/06 07:24:12;;;;;;;39.80;23.15;;;;;;;6.27;72.03;99289.38;5029984;28;20036;-24
2021/04/06 07:26:38;;;;;;;40.17;22.50;;;;;;;6.40;71.90;99268.97;5013751;28;20059;-22
2021/04/06 07:29:04;;;;;;;37.33;22.02;;;;;;;6.75;70.86;99265.94;5030092;28;20029;-24
2021/04/06 07:31:30;;;;;;;41.70;23.05;;;;;;;7.18;69.73;99299.69;5013645;28;20036;-23
2021/04/06 07:33:55;;;;;;;40.97;24.58;;;;;;;6.77;72.36;99293.03;5013229;28;20021;-23
2021/04/06 07:36:23;;;;;;;39.65;22.58;;;;;;;7.09;69.98;99286.91;5047372;28;20029;-24
2021/04/06 07:38:55;;;;;;;44.17;24.20;;;;;;;7.40;70.43;99264.84;5047411;28;20032;-24
2021/04/06 07:41:22;;;;;;;37.13;22.60;;;;;;;7.70;69.12;99269.44;5030910;28;20039;-24
2021/04/06 07:43:49;;;;;;;42.25;23.13;;;;;;;8.17;67.73;99267.94;5029796;28;20036;-23
2021/04/06 07:46:33;;;;;;;39.08;20.92;;;;;;;8.17;66.87;99281.22;5047007;28;20037;-22
2021/04/06 07:48:58;;;;;;;38.35;22.08;;;;;;;8.27;66.69;99280.66;5047029;28;20480;-24
2021/04/06 07:51:26;;;;;;;40.22;22.95;;;;;;;8.15;66.87;99282.44;5047120;28;20489;-24
2021/04/06 07:53:59;;;;;;;40.65;23.27;;;;;;;8.29;66.34;99278.59;5047590;28;20033;-24
2021/04/06 07:56:43;;;;;;;36.72;21.60;;;;;;;7.77;68.72;99270.22;5047072;28;20033;-24
2021/04/06 07:59:09;;;;;;;39.30;21.60;;;;;;;8.09;67.15;99262.09;5047093;28;20025;-25
2021/04/06 08:01:34;;;;;;;40.50;23.15;;;;;;;8.14;67.23;99254.28;5047037;28;20051;-25
2021/04/06 08:04:04;;;;;;;39.58;22.92;;;;;;;8.35;68.35;99245.03;5029692;28;20033;-25
2021/04/06 08:06:47;;;;;;;41.38;24.98;;;;;;;8.58;66.77;99270.91;5047022;28;20032;-25
2021/04/06 08:09:43;;;;;;;38.28;22.20;;;;;;;7.93;69.70;99290.88;5046847;28;20102;-25
2021/04/06 08:12:17;;;;;;;36.30;20.73;;;;;;;7.54;69.68;99269.00;5046678;28;20063;-23
2021/04/06 08:14:50;;;;;;;38.50;23.05;;;;;;;7.76;71.43;99268.56;5047136;28;20098;-25
2021/04/06 08:17:27;;;;;;;35.58;20.48;;;;;;;7.90;69.84;99267.41;5013065;28;20424;-25
2021/04/06 08:20:06;;;;;;;33.30;20.80;;;;;;;8.31;68.32;99260.59;5046977;28;20059;-25
2021/04/06 08:22:48;;;;;;;35.97;21.00;;;;;;;8.35;68.44;99250.34;5046921;28;20033;-25
2021/04/06 08:25:22;;;;;;;37.72;23.38;;;;;;;8.31;68.23;99238.53;5046896;28;20468;-23
2021/04/06 08:27:51;;;;;;;37.75;23.48;;;;;;;8.08;69.96;99244.53;5046585;28;20503;-24
2021/04/06 08:30:24;;;;;;;66.03;37.63;;;;;;;7.82;72.07;99241.16;5046952;28;20056;-25
2021/04/06 08:32:56;;;;;;;41.58;25.42;;;;;;;7.82;72.09;99246.47;5046823;28;20041;-24
2021/04/06 08:35:52;;;;;;;37.80;21.65;;;;;;;7.89;73.33;99241.91;5047062;28;20025;-24
2021/04/06 08:38:29;;;;;;;36.45;21.52;;;;;;;8.43;69.79;99228.81;5046242;28;20044;-24
2021/04/06 08:41:13;;;;;;;37.25;22.52;;;;;;;8.97;69.17;99205.72;5046797;28;20029;-24
2021/04/06 08:43:52;;;;;;;36.13;21.92;;;;;;;9.34;65.92;99162.94;5031441;28;20029;-22
2021/04/06 08:46:27;;;;;;;33.15;20.60;;;;;;;9.47;64.39;99161.88;5049405;28;20033;-24
2021/04/06 08:48:55;;;;;;;34.53;21.55;;;;;;;9.75;63.21;99147.03;5050515;28;20037;-23
2021/04/06 08:51:40;;;;;;;46.15;29.52;;;;;;;9.96;64.26;99153.53;5050995;28;20025;-24
2021/04/06 08:54:15;;;;;;;32.33;20.70;;;;;;;9.49;65.07;99151.81;5050571;28;20050;-22
2021/04/06 08:57:03;;;;;;;36.22;21.95;;;;;;;9.66;64.44;99138.56;5050534;28;20029;-24
2021/04/06 08:59:32;;;;;;;33.70;21.20;;;;;;;9.96;63.96;99143.69;5050644;28;20098;-25
2021/04/06 09:01:59;;;;;;;35.13;22.60;;;;;;;9.84;64.59;99129.63;5050551;28;20036;-23
2021/04/06 09:04:32;;;;;;;37.55;23.17;;;;;;;10.23;63.84;99116.47;5050598;28;20036;-24
2021/04/06 09:06:58;;;;;;;33.97;22.77;;;;;;;9.85;63.44;99126.72;5050170;28;20024;-25
2021/04/06 09:09:28;;;;;;;35.78;22.02;;;;;;;9.92;64.05;99131.09;5050241;28;20033;-24
2021/04/06 09:11:55;;;;;;;36.42;22.38;;;;;;;10.13;62.54;99116.28;5050542;28;20087;-25
2021/04/06 09:14:21;;;;;;;35.75;22.40;;;;;;;10.71;61.41;99101.84;5032649;28;20040;-24
2021/04/06 09:16:48;;;;;;;37.00;22.23;;;;;;;10.94;60.23;99097.38;5050068;28;20029;-24
2021/04/06 09:19:15;;;;;;;33.83;22.23;;;;;;;10.92;60.03;99086.16;5015912;28;20119;-25
2021/04/06 09:21:46;;;;;;;34.47;21.48;;;;;;;10.96;61.10;99084.59;5032506;28;20025;-24
2021/04/06 09:24:12;;;;;;;34.22;21.75;;;;;;;11.12;58.91;99061.63;5049687;28;20272;-25
2021/04/06 09:26:39;;;;;;;35.35;21.75;;;;;;;11.29;58.79;99066.91;5049932;28;20392;-25
2021/04/06 09:29:07;;;;;;;35.67;22.92;;;;;;;11.12;58.44;99074.97;5049932;28;20036;-24
2021/04/06 09:31:37;;;;;;;37.53;24.33;;;;;;;11.12;59.95;99102.44;5050089;28;20036;-25
2021/04/06 09:34:08;;;;;;;38.75;24.48;;;;;;;10.26;63.45;99124.00;5049855;28;20095;-23
2021/04/06 09:36:34;;;;;;;36.25;23.33;;;;;;;9.94;64.10;99129.81;5049666;28;20025;-24
2021/04/06 09:39:00;;;;;;;45.35;28.92;;;;;;;9.52;66.64;99119.41;5049908;28;20696;-24
2021/04/06 09:41:30;;;;;;;48.15;28.10;;;;;;;9.34;67.95;99154.16;5032015;28;20108;-24
2021/04/06 09:43:55;;;;;;;43.72;26.17;;;;;;;9.17;67.42;99173.44;5049678;28;20029;-24
2021/04/06 09:46:21;;;;;;;35.10;22.75;;;;;;;9.14;68.34;99165.16;5049299;28;20040;-24
2021/04/06 09:48:54;;;;;;;35.08;23.85;;;;;;;8.85;69.48;99171.13;5049583;28;20417;-24
2021/04/06 09:51:20;;;;;;;35.42;22.30;;;;;;;9.16;68.02;99139.94;5049562;28;20083;-24
2021/04/06 09:53:45;;;;;;;36.00;22.27;;;;;;;9.81;66.01;99132.75;5049825;28;20033;-24
2021/04/06 09:56:11;;;;;;;36.40;23.02;;;;;;;9.11;68.79;99139.00;5030702;28;20029;-24
2021/04/06 09:58:36;;;;;;;36.75;23.70;;;;;;;8.88;69.75;99129.97;5048807;28;20037;-25
2021/04/06 10:01:02;;;;;;;39.58;24.33;;;;;;;8.57;71.33;99147.06;5049611;28;20467;-25
2021/04/06 10:03:28;;;;;;;42.67;27.13;;;;;;;8.74;70.01;99158.63;5049381;28;20459;-23
2021/04/06 10:06:04;;;;;;;43.13;26.52;;;;;;;8.75;71.93;99157.59;5049211;28;20029;-23
2021/04/06 10:08:33;;;;;;;40.58;26.83;;;;;;;8.64;73.04;99159.22;5049067;28;20078;-24
2021/04/06 10:10:58;;;;;;;41.95;26.52;;;;;;;8.95;71.77;99143.16;5031122;28;20060;-24
2021/04/06 10:13:24;;;;;;;45.83;34.47;;;;;;;9.17;70.64;99117.59;5049241;28;20524;-24
2021/04/06 10:15:49;;;;;;;46.15;32.40;;;;;;;9.39;68.99;99085.06;5049113;28;20477;-23
2021/04/06 10:18:15;;;;;;;42.65;28.05;;;;;;;9.72;68.80;99036.47;5014623;28;20029;-24
2021/04/06 10:20:46;;;;;;;51.30;31.40;;;;;;;10.03;67.74;98995.22;5049102;28;20041;-25
2021/04/06 10:23:12;;;;;;;179.77;126.13;;;;;;;10.14;68.28;98950.09;5049027;28;20499;-24
2021/04/06 10:25:42;;;;;;;104.13;70.20;;;;;;;10.38;68.51;98937.38;5048841;28;20035;-23
2021/04/06 10:28:09;;;;;;;117.72;103.28;;;;;;;10.72;67.47;98898.13;5048654;28;20408;-24
2021/04/06 10:30:41;;;;;;;88.43;79.40;;;;;;;10.81;67.05;98893.97;5030794;28;20037;-24
2021/04/06 10:33:11;;;;;;;42.92;28.17;;;;;;;10.94;67.91;98934.66;5048901;28;20607;-24
2021/04/06 10:35:42;;;;;;;48.00;31.85;;;;;;;11.18;68.33;98919.19;5049014;28;20035;-24
2021/04/06 10:38:15;;;;;;;44.60;29.67;;;;;;;11.45;66.58;98898.63;5048274;28;20021;-24
2021/04/06 10:40:41;;;;;;;38.38;26.85;;;;;;;11.38;66.66;98870.53;5031878;28;20096;-23
2021/04/06 10:43:20;;;;;;;38.38;25.17;;;;;;;11.73;65.59;98902.09;5030958;28;20446;-23
2021/04/06 10:46:07;;;;;;;39.58;29.98;;;;;;;12.15;64.25;98904.00;5048692;28;20039;-25
2021/04/06 10:48:35;;;;;;;33.90;26.33;;;;;;;12.34;62.94;98931.16;5047768;28;20051;-24
2021/04/06 10:51:17;;;;;;;44.60;35.17;;;;;;;11.82;61.91;98940.63;5048576;28;20040;-24
2021/04/06 10:53:45;;;;;;;26.88;19.83;;;;;;;11.44;61.67;98938.91;5030563;28;20112;-24
2021/04/06 10:56:14;;;;;;;34.20;22.75;;;;;;;11.85;63.21;98966.03;5048308;28;20041;-24
2021/04/06 10:58:47;;;;;;;32.58;21.83;;;;;;;11.40;64.84;98957.34;5048196;28;20447;-24
2021/04/06 11:01:14;;;;;;;29.88;20.75;;;;;;;11.09;63.12;98950.03;5048103;28;20404;-24
2021/04/06 11:03:45;;;;;;;32.13;22.60;;;;;;;11.31;65.48;98990.84;5048584;28;20041;-24
2021/04/06 11:06:15;;;;;;;31.17;22.25;;;;;;;11.03;64.88;98975.84;5047748;28;20020;-25
2021/04/06 11:08:43;;;;;;;35.65;23.48;;;;;;;11.59;65.60;98967.66;5047885;28;20036;-24
2021/04/06 11:11:23;;;;;;;32.05;22.30;;;;;;;11.84;65.64;98981.22;5047937;28;20452;-23
2021/04/06 11:13:49;;;;;;;31.73;21.02;;;;;;;10.96;66.08;98986.69;5048066;28;20039;-23
2021/04/06 11:16:15;;;;;;;31.35;20.98;;;;;;;11.21;67.13;98966.72;5047549;28;20040;-23
2021/04/06 11:18:41;;;;;;;29.80;19.52;;;;;;;11.18;64.22;98954.69;5048066;28;20028;-24
2021/04/06 11:21:06;;;;;;;30.42;20.60;;;;;;;11.67;65.44;98943.16;5048052;28;20036;-24
2021/04/06 11:23:32;;;;;;;27.40;18.73;;;;;;;11.91;61.85;98941.00;5047958;28;20036;-24
2021/04/06 11:25:58;;;;;;;31.98;21.08;;;;;;;12.16;62.30;98924.34;5047803;28;20086;-25
2021/04/06 11:28:24;;;;;;;31.85;20.95;;;;;;;11.57;64.86;98898.47;5047652;28;20493;-23
2021/04/06 11:30:49;;;;;;;28.20;19.52;;;;;;;11.59;63.38;98896.34;5047706;28;20101;-23
2021/04/06 11:33:15;;;;;;;30.80;20.75;;;;;;;11.73;63.31;98903.94;5047415;28;20036;-24